Time;durP1;ratioP1;P1;durP2;ratioP2;P2;SDS_P1;SDS_P2;PMS_P1;PMS_P2;Temp;Humidity;BMP_temperature;BMP_pressure;BME280_temperature;BME280_humidity;BME280_pressure;Samples;Min_cycle;Max_cycle;Signal;HPM_P1;HPM_P2
2022/02/28 00:00:27;;;;;;;17.90;10.63;;;;;;;;;;5012684;28;20426;-83
2022/02/28 00:02:53;;;;;;;18.40;9.00;;;;;;;;;;5016869;28;20414;-81
2022/02/28 00:05:19;;;;;;;16.07;9.60;;;;;;;;;;5014229;28;20772;-81
2022/02/28 00:07:45;;;;;;;16.80;10.03;;;;;;;;;;4998654;28;20422;-82
2022/02/28 00:10:17;;;;;;;12.83;8.77;;;;;;;;;;5013558;28;20918;-81
2022/02/28 00:12:43;;;;;;;12.70;9.03;;;;;;;;;;4996588;28;20426;-79
2022/02/28 00:15:10;;;;;;;16.23;9.17;;;;;;;;;;5012962;28;20450;-80
2022/02/28 00:17:36;;;;;;;21.73;10.17;;;;;;;;;;4995371;28;20510;-82
2022/02/28 00:20:06;;;;;;;16.83;9.63;;;;;;;;;;5047841;22;20498;-82
2022/02/28 00:22:33;;;;;;;13.77;9.10;;;;;;;;;;5010903;28;20483;-82
2022/02/28 00:24:59;;;;;;;14.37;8.23;;;;;;;;;;4994318;28;20576;-87
2022/02/28 00:27:25;;;;;;;20.47;10.93;;;;;;;;;;5013053;28;20417;-79
2022/02/28 00:29:52;;;;;;;23.00;11.47;;;;;;;;;;5012893;28;20793;-81
2022/02/28 00:32:18;;;;;;;14.60;9.03;;;;;;;;;;5012658;28;20502;-85
2022/02/28 00:34:44;;;;;;;14.00;8.63;;;;;;;;;;5012458;28;20896;-84
2022/02/28 00:37:10;;;;;;;16.30;9.23;;;;;;;;;;5012921;28;20450;-80
2022/02/28 00:39:36;;;;;;;15.63;9.17;;;;;;;;;;5012953;28;20427;-81
2022/02/28 00:42:03;;;;;;;14.00;7.67;;;;;;;;;;5012555;28;20513;-84
2022/02/28 00:44:28;;;;;;;16.23;9.20;;;;;;;;;;5012715;28;20412;-80
2022/02/28 00:46:54;;;;;;;13.13;7.67;;;;;;;;;;5012714;28;20906;-79
2022/02/28 00:49:20;;;;;;;14.33;8.63;;;;;;;;;;5012777;28;20410;-84
2022/02/28 00:51:46;;;;;;;18.83;11.10;;;;;;;;;;5012241;28;20440;-85
2022/02/28 00:54:12;;;;;;;17.07;9.97;;;;;;;;;;5012561;28;20476;-80
2022/02/28 00:56:38;;;;;;;19.50;10.80;;;;;;;;;;4994679;28;20510;-83
2022/02/28 00:59:04;;;;;;;9.43;7.00;;;;;;;;;;5012467;28;21058;-84
2022/02/28 01:01:30;;;;;;;11.97;8.50;;;;;;;;;;5012511;28;20411;-83
2022/02/28 01:03:56;;;;;;;14.37;9.20;;;;;;;;;;4998608;28;20508;-80
2022/02/28 01:06:23;;;;;;;18.37;10.50;;;;;;;;;;4998499;28;20513;-83
2022/02/28 01:08:49;;;;;;;14.00;9.13;;;;;;;;;;4998626;28;20439;-82
2022/02/28 01:11:15;;;;;;;14.40;9.03;;;;;;;;;;5016126;28;20414;-80
2022/02/28 01:13:41;;;;;;;18.13;9.63;;;;;;;;;;5016127;28;20416;-80
2022/02/28 01:16:07;;;;;;;14.13;9.20;;;;;;;;;;5015896;28;20485;-81
2022/02/28 01:18:33;;;;;;;24.07;10.97;;;;;;;;;;5016103;28;20448;-81
2022/02/28 01:20:59;;;;;;;15.93;10.50;;;;;;;;;;5015334;28;20469;-80
2022/02/28 01:23:24;;;;;;;15.10;8.17;;;;;;;;;;4998276;28;20451;-82
2022/02/28 01:25:50;;;;;;;15.80;9.37;;;;;;;;;;5015920;28;20409;-80
2022/02/28 01:28:16;;;;;;;15.47;9.33;;;;;;;;;;4998340;28;20413;-80
2022/02/28 01:30:43;;;;;;;15.43;8.47;;;;;;;;;;5015823;28;20963;-83
2022/02/28 01:33:08;;;;;;;19.87;9.63;;;;;;;;;;5014612;28;20417;-82
2022/02/28 01:35:34;;;;;;;18.60;10.07;;;;;;;;;;5015321;28;20563;-82
2022/02/28 01:38:00;;;;;;;13.70;8.50;;;;;;;;;;5015862;28;20412;-81
2022/02/28 01:40:26;;;;;;;18.27;8.60;;;;;;;;;;5015833;28;20414;-84
2022/02/28 01:42:53;;;;;;;18.43;10.57;;;;;;;;;;5015723;28;20911;-80
2022/02/28 01:45:22;;;;;;;18.37;9.77;;;;;;;;;;4994061;28;20442;-81
2022/02/28 01:47:48;;;;;;;14.97;9.13;;;;;;;;;;4995618;28;20411;-81
2022/02/28 01:50:14;;;;;;;13.50;7.90;;;;;;;;;;4995516;28;20455;-81
2022/02/28 01:52:41;;;;;;;17.00;10.63;;;;;;;;;;4995968;28;20411;-81
2022/02/28 01:55:08;;;;;;;18.03;9.60;;;;;;;;;;4995964;28;20816;-82
2022/02/28 01:57:34;;;;;;;15.90;10.30;;;;;;;;;;4978409;28;20449;-81
2022/02/28 02:00:00;;;;;;;14.77;8.60;;;;;;;;;;4995866;28;20414;-80
2022/02/28 02:02:25;;;;;;;16.63;9.17;;;;;;;;;;4995906;28;20481;-82
2022/02/28 02:04:51;;;;;;;17.97;9.93;;;;;;;;;;4978119;28;20824;-81
2022/02/28 02:07:17;;;;;;;13.30;9.40;;;;;;;;;;4995719;28;20450;-81
2022/02/28 02:09:43;;;;;;;15.77;10.00;;;;;;;;;;4995819;28;20934;-82
2022/02/28 02:12:10;;;;;;;17.57;10.33;;;;;;;;;;4995750;28;20424;-80
2022/02/28 02:14:38;;;;;;;20.90;10.40;;;;;;;;;;4994650;28;20443;-81
2022/02/28 02:17:04;;;;;;;14.33;9.40;;;;;;;;;;4995742;28;20419;-80
2022/02/28 02:19:32;;;;;;;14.70;8.20;;;;;;;;;;4995317;28;20413;-81
2022/02/28 02:21:58;;;;;;;13.43;8.07;;;;;;;;;;4977817;28;20478;-81
2022/02/28 02:24:24;;;;;;;20.10;11.30;;;;;;;;;;4995466;28;20913;-80
2022/02/28 02:26:50;;;;;;;26.67;12.23;;;;;;;;;;4995612;28;20452;-83
2022/02/28 02:29:16;;;;;;;22.87;7.80;;;;;;;;;;4995446;28;20425;-81
2022/02/28 02:31:42;;;;;;;17.20;10.00;;;;;;;;;;4995380;28;20501;-81
2022/02/28 02:34:08;;;;;;;16.23;8.40;;;;;;;;;;4995112;28;20549;-80
2022/02/28 02:36:33;;;;;;;16.03;10.07;;;;;;;;;;4977745;28;20958;-81
2022/02/28 02:38:59;;;;;;;19.40;9.87;;;;;;;;;;4995289;28;20413;-81
2022/02/28 02:41:25;;;;;;;16.90;9.47;;;;;;;;;;4995247;28;20426;-80
2022/02/28 02:43:51;;;;;;;14.77;8.80;;;;;;;;;;4995239;28;20813;-81
2022/02/28 02:46:17;;;;;;;14.77;9.23;;;;;;;;;;4995176;28;20418;-81
2022/02/28 02:48:43;;;;;;;18.83;9.17;;;;;;;;;;4995012;28;20420;-81
2022/02/28 02:51:10;;;;;;;15.43;10.07;;;;;;;;;;4994659;28;20473;-81
2022/02/28 02:53:36;;;;;;;15.47;8.93;;;;;;;;;;4995014;28;20419;-81
2022/02/28 02:56:02;;;;;;;14.90;8.30;;;;;;;;;;4994851;28;20474;-81
2022/02/28 02:58:27;;;;;;;18.43;9.10;;;;;;;;;;4977474;28;20538;-80
2022/02/28 03:00:54;;;;;;;18.70;10.47;;;;;;;;;;4994869;28;20425;-80
2022/02/28 03:03:22;;;;;;;12.03;8.90;;;;;;;;;;4994728;28;20402;-83
2022/02/28 03:05:48;;;;;;;20.40;10.40;;;;;;;;;;4994339;28;20468;-82
2022/02/28 03:08:14;;;;;;;14.60;10.23;;;;;;;;;;4994580;28;20501;-82
2022/02/28 03:10:40;;;;;;;17.27;10.47;;;;;;;;;;4994690;28;20450;-83
2022/02/28 03:13:06;;;;;;;14.17;9.83;;;;;;;;;;4994702;28;20792;-82
2022/02/28 03:15:32;;;;;;;16.33;9.97;;;;;;;;;;4994554;28;20495;-82
2022/02/28 03:17:58;;;;;;;19.67;9.57;;;;;;;;;;4994482;28;20431;-84
2022/02/28 03:20:24;;;;;;;14.13;8.80;;;;;;;;;;4993845;28;20974;-81
2022/02/28 03:22:50;;;;;;;16.77;9.97;;;;;;;;;;4994453;28;20407;-83
2022/02/28 03:25:16;;;;;;;16.73;9.30;;;;;;;;;;4994149;28;20419;-83
2022/02/28 03:27:42;;;;;;;18.00;10.13;;;;;;;;;;4994272;28;20424;-80
2022/02/28 03:30:09;;;;;;;13.87;9.53;;;;;;;;;;4994270;28;20475;-80
2022/02/28 03:32:35;;;;;;;16.40;11.93;;;;;;;;;;4994221;28;20495;-82
2022/02/28 03:35:02;;;;;;;13.97;8.60;;;;;;;;;;4993777;28;20565;-81
2022/02/28 03:37:28;;;;;;;20.90;10.40;;;;;;;;;;4994160;28;20468;-81
2022/02/28 03:39:55;;;;;;;15.40;9.13;;;;;;;;;;4994086;28;20439;-84
2022/02/28 03:42:21;;;;;;;17.70;9.40;;;;;;;;;;4994063;28;20792;-83
2022/02/28 03:44:47;;;;;;;20.70;10.80;;;;;;;;;;4994040;28;20414;-84
2022/02/28 03:47:13;;;;;;;15.17;10.10;;;;;;;;;;4993947;28;20938;-82
2022/02/28 03:49:39;;;;;;;19.77;11.83;;;;;;;;;;4993558;28;20411;-84
2022/02/28 03:52:05;;;;;;;14.37;8.50;;;;;;;;;;4976416;28;20477;-83
2022/02/28 03:54:32;;;;;;;13.77;9.77;;;;;;;;;;4993809;28;20502;-84
2022/02/28 03:56:58;;;;;;;16.83;11.27;;;;;;;;;;4993781;28;20427;-84
2022/02/28 03:59:24;;;;;;;15.17;9.27;;;;;;;;;;4993867;28;20452;-83
2022/02/28 04:01:50;;;;;;;27.90;12.43;;;;;;;;;;4993809;28;20455;-82
2022/02/28 04:04:17;;;;;;;14.60;10.70;;;;;;;;;;4993385;28;20414;-83
2022/02/28 04:06:46;;;;;;;13.30;8.57;;;;;;;;;;4993779;28;20449;-83
2022/02/28 04:09:12;;;;;;;13.17;8.40;;;;;;;;;;4993654;28;20776;-83
2022/02/28 04:11:38;;;;;;;12.00;8.40;;;;;;;;;;4993702;28;20446;-83
2022/02/28 04:14:04;;;;;;;16.03;9.67;;;;;;;;;;4993696;28;20406;-82
2022/02/28 04:16:30;;;;;;;18.00;11.10;;;;;;;;;;4993447;28;20470;-82
2022/02/28 04:18:56;;;;;;;12.63;8.57;;;;;;;;;;4993261;28;20449;-82
2022/02/28 04:21:22;;;;;;;19.57;10.63;;;;;;;;;;4993296;28;20494;-82
2022/02/28 04:23:51;;;;;;;20.27;10.90;;;;;;;;;;4993557;28;20443;-83
2022/02/28 04:26:17;;;;;;;18.40;11.60;;;;;;;;;;4993600;28;20792;-83
2022/02/28 04:28:43;;;;;;;18.10;10.20;;;;;;;;;;4993405;28;20407;-83
2022/02/28 04:31:09;;;;;;;13.83;8.87;;;;;;;;;;4976162;28;20900;-83
2022/02/28 04:33:35;;;;;;;15.10;10.00;;;;;;;;;;4993267;28;20417;-83
2022/02/28 04:36:00;;;;;;;15.73;9.20;;;;;;;;;;4992972;28;20528;-83
2022/02/28 04:38:26;;;;;;;24.93;13.00;;;;;;;;;;4996758;28;20410;-82
2022/02/28 04:40:52;;;;;;;21.00;12.07;;;;;;;;;;4997469;28;20454;-83
2022/02/28 04:43:18;;;;;;;22.37;11.47;;;;;;;;;;4997344;28;20493;-82
2022/02/28 04:45:44;;;;;;;19.70;10.30;;;;;;;;;;4997229;28;20429;-83
2022/02/28 04:48:10;;;;;;;19.07;10.07;;;;;;;;;;4997339;28;20983;-83
2022/02/28 04:50:36;;;;;;;15.33;11.80;;;;;;;;;;4996869;28;20427;-84
2022/02/28 04:53:02;;;;;;;17.37;10.70;;;;;;;;;;4997169;28;20781;-83
2022/02/28 04:55:28;;;;;;;19.80;9.67;;;;;;;;;;4997123;28;20567;-82
2022/02/28 04:57:54;;;;;;;17.40;10.80;;;;;;;;;;4997010;28;20555;-81
2022/02/28 05:00:20;;;;;;;16.53;10.30;;;;;;;;;;4979525;28;20931;-81
2022/02/28 05:02:46;;;;;;;16.30;10.57;;;;;;;;;;4979528;28;20513;-83
2022/02/28 05:05:13;;;;;;;18.70;10.97;;;;;;;;;;4996614;28;20776;-82
2022/02/28 05:07:39;;;;;;;16.60;11.20;;;;;;;;;;4979420;28;20897;-83
2022/02/28 05:10:05;;;;;;;17.53;10.67;;;;;;;;;;4996910;28;20421;-83
2022/02/28 05:12:31;;;;;;;17.20;10.90;;;;;;;;;;4996818;28;20420;-83
2022/02/28 05:14:57;;;;;;;18.30;12.63;;;;;;;;;;4996732;28;20460;-82
2022/02/28 05:17:23;;;;;;;26.93;12.40;;;;;;;;;;4996775;28;20424;-83
2022/02/28 05:19:49;;;;;;;19.30;11.27;;;;;;;;;;4979007;28;20421;-82
2022/02/28 05:22:15;;;;;;;20.27;9.67;;;;;;;;;;4996512;28;20509;-83
2022/02/28 05:24:41;;;;;;;23.90;13.50;;;;;;;;;;4996662;28;20767;-83
2022/02/28 05:27:09;;;;;;;18.20;11.50;;;;;;;;;;4979087;28;20915;-82
2022/02/28 05:29:35;;;;;;;23.50;12.37;;;;;;;;;;4996591;28;20403;-84
2022/02/28 05:32:01;;;;;;;26.80;13.40;;;;;;;;;;4996580;28;20409;-83
2022/02/28 05:34:27;;;;;;;31.90;14.07;;;;;;;;;;4978690;28;20407;-82
2022/02/28 05:36:53;;;;;;;23.93;12.93;;;;;;;;;;4996340;28;20477;-80
2022/02/28 05:39:19;;;;;;;22.53;11.47;;;;;;;;;;4996327;28;20409;-83
2022/02/28 05:41:45;;;;;;;14.83;10.70;;;;;;;;;;4996310;28;20729;-82
2022/02/28 05:44:11;;;;;;;22.50;12.60;;;;;;;;;;4996299;28;20438;-84
2022/02/28 05:46:37;;;;;;;16.97;10.80;;;;;;;;;;4996188;28;20458;-83
2022/02/28 05:49:03;;;;;;;15.37;10.17;;;;;;;;;;4995699;28;20418;-84
2022/02/28 05:51:29;;;;;;;19.50;14.80;;;;;;;;;;4996202;28;20414;-83
2022/02/28 05:53:55;;;;;;;20.80;13.07;;;;;;;;;;4978598;28;20432;-83
2022/02/28 05:56:21;;;;;;;24.50;13.50;;;;;;;;;;4995784;28;20483;-84
2022/02/28 05:58:47;;;;;;;24.47;13.70;;;;;;;;;;4995926;28;20460;-84
2022/02/28 06:01:13;;;;;;;27.67;13.87;;;;;;;;;;4978306;28;20429;-83
2022/02/28 06:03:39;;;;;;;24.17;13.47;;;;;;;;;;4995465;28;20458;-84
2022/02/28 06:06:05;;;;;;;16.73;11.70;;;;;;;;;;4995824;28;20516;-84
2022/02/28 06:08:32;;;;;;;27.80;13.30;;;;;;;;;;4995818;28;20449;-84
2022/02/28 06:10:57;;;;;;;23.70;13.10;;;;;;;;;;4995662;28;20778;-83
2022/02/28 06:13:23;;;;;;;20.77;14.00;;;;;;;;;;4995555;28;20416;-83
2022/02/28 06:15:50;;;;;;;17.90;11.43;;;;;;;;;;4993918;28;20519;-84
2022/02/28 06:18:16;;;;;;;24.70;13.40;;;;;;;;;;4995709;28;20472;-83
2022/02/28 06:20:42;;;;;;;25.67;14.73;;;;;;;;;;4995350;28;20471;-82
2022/02/28 06:23:14;;;;;;;21.87;13.60;;;;;;;;;;4995599;28;20408;-84
2022/02/28 06:25:40;;;;;;;15.90;9.80;;;;;;;;;;4995422;28;20415;-84
2022/02/28 06:28:06;;;;;;;23.17;14.40;;;;;;;;;;4995335;28;20410;-82
2022/02/28 06:30:32;;;;;;;19.17;13.40;;;;;;;;;;4995342;28;20472;-84
2022/02/28 06:32:58;;;;;;;22.20;11.77;;;;;;;;;;4977276;28;20424;-84
2022/02/28 06:35:24;;;;;;;22.97;12.20;;;;;;;;;;4993405;28;20471;-83
2022/02/28 06:37:50;;;;;;;29.70;14.90;;;;;;;;;;4994117;28;20963;-84
2022/02/28 06:40:16;;;;;;;15.00;9.20;;;;;;;;;;4995050;28;20413;-83
2022/02/28 06:42:42;;;;;;;21.27;11.60;;;;;;;;;;4995232;28;20499;-83
2022/02/28 06:45:08;;;;;;;22.53;12.37;;;;;;;;;;4995024;28;20476;-83
2022/02/28 06:47:34;;;;;;;22.90;15.13;;;;;;;;;;4995034;28;20422;-82
2022/02/28 06:50:00;;;;;;;28.77;14.27;;;;;;;;;;4977230;28;20519;-83
2022/02/28 06:52:26;;;;;;;32.13;16.33;;;;;;;;;;4977531;28;20434;-83
2022/02/28 06:54:56;;;;;;;33.57;14.93;;;;;;;;;;4977463;28;20420;-84
2022/02/28 06:57:22;;;;;;;33.87;16.63;;;;;;;;;;4994938;28;20427;-82
2022/02/28 06:59:48;;;;;;;23.00;12.70;;;;;;;;;;4994409;28;20419;-82
2022/02/28 07:02:14;;;;;;;18.70;10.43;;;;;;;;;;4995091;28;20433;-82
2022/02/28 07:04:40;;;;;;;20.87;12.87;;;;;;;;;;5013900;28;20482;-80
2022/02/28 07:07:06;;;;;;;20.40;10.77;;;;;;;;;;5014215;28;20769;-84
2022/02/28 07:09:32;;;;;;;24.53;13.80;;;;;;;;;;5014032;28;20449;-82
2022/02/28 07:11:58;;;;;;;25.93;15.70;;;;;;;;;;5014031;28;20428;-81
2022/02/28 07:14:25;;;;;;;30.67;17.33;;;;;;;;;;5014078;28;20416;-81
2022/02/28 07:16:51;;;;;;;32.20;15.50;;;;;;;;;;5013875;28;20482;-82
2022/02/28 07:19:17;;;;;;;25.60;14.80;;;;;;;;;;5013590;28;20952;-82
2022/02/28 07:21:44;;;;;;;29.83;14.27;;;;;;;;;;5013713;28;20468;-85
2022/02/28 07:24:10;;;;;;;26.70;17.30;;;;;;;;;;5013909;28;20804;-83
2022/02/28 07:26:36;;;;;;;32.53;16.60;;;;;;;;;;5013740;28;20916;-83
2022/02/28 07:29:02;;;;;;;25.10;12.43;;;;;;;;;;5013616;28;20406;-83
2022/02/28 07:31:28;;;;;;;30.47;15.00;;;;;;;;;;5013718;28;20479;-83
2022/02/28 07:33:54;;;;;;;25.53;15.13;;;;;;;;;;5013297;28;20882;-80
2022/02/28 07:36:20;;;;;;;26.97;13.90;;;;;;;;;;5013849;28;20572;-80
2022/02/28 07:38:47;;;;;;;13.83;9.57;;;;;;;;;;5013730;28;20405;-84
2022/02/28 07:41:13;;;;;;;26.50;13.43;;;;;;;;;;5013769;28;20406;-88
2022/02/28 07:43:39;;;;;;;25.90;16.40;;;;;;;;;;4995920;28;20414;-84
2022/02/28 07:46:05;;;;;;;24.27;13.13;;;;;;;;;;5013802;28;20475;-87
2022/02/28 07:48:31;;;;;;;31.17;14.03;;;;;;;;;;5013246;28;20418;-85
2022/02/28 07:50:56;;;;;;;28.33;15.37;;;;;;;;;;5013646;28;20425;-84
2022/02/28 07:53:23;;;;;;;21.40;12.90;;;;;;;;;;5013664;28;20471;-84
2022/02/28 07:55:50;;;;;;;23.93;14.13;;;;;;;;;;5013496;28;20539;-84
2022/02/28 07:58:19;;;;;;;19.47;12.80;;;;;;;;;;5013420;28;20500;-82
2022/02/28 08:00:45;;;;;;;29.37;15.40;;;;;;;;;;5013507;28;20413;-84
2022/02/28 08:03:10;;;;;;;29.93;14.53;;;;;;;;;;5012464;28;20515;-84
2022/02/28 08:05:36;;;;;;;32.20;17.70;;;;;;;;;;4995762;28;20410;-86
2022/02/28 08:08:03;;;;;;;30.27;16.23;;;;;;;;;;4995915;28;20453;-84
2022/02/28 08:10:31;;;;;;;28.50;15.33;;;;;;;;;;5013453;28;20414;-86
2022/02/28 08:12:57;;;;;;;31.73;16.33;;;;;;;;;;5012190;28;20501;-85
2022/02/28 08:15:23;;;;;;;24.40;14.57;;;;;;;;;;5013201;28;20965;-82
2022/02/28 08:17:49;;;;;;;29.97;14.50;;;;;;;;;;5013239;28;20493;-85
2022/02/28 08:20:15;;;;;;;34.43;18.63;;;;;;;;;;5012556;28;20984;-85
2022/02/28 08:22:41;;;;;;;25.67;16.17;;;;;;;;;;5013160;28;20779;-81
2022/02/28 08:25:08;;;;;;;18.07;12.60;;;;;;;;;;4995518;28;20903;-85
2022/02/28 08:27:34;;;;;;;34.87;17.50;;;;;;;;;;4995358;28;20420;-85
2022/02/28 08:30:03;;;;;;;23.80;12.97;;;;;;;;;;5013213;28;20423;-84
2022/02/28 08:32:29;;;;;;;28.20;17.10;;;;;;;;;;5012964;28;20452;-86
2022/02/28 08:34:55;;;;;;;34.93;19.03;;;;;;;;;;5012554;28;20425;-85
2022/02/28 08:37:21;;;;;;;36.67;20.53;;;;;;;;;;5012999;28;20449;-82
2022/02/28 08:39:47;;;;;;;31.00;17.43;;;;;;;;;;5013075;28;20809;-85
2022/02/28 08:42:13;;;;;;;29.00;18.90;;;;;;;;;;5012944;28;20449;-85
2022/02/28 08:44:39;;;;;;;32.73;13.60;;;;;;;;;;4995161;28;20985;-85
2022/02/28 08:47:05;;;;;;;30.37;18.20;;;;;;;;;;5012897;28;20473;-85
2022/02/28 08:49:31;;;;;;;30.47;16.57;;;;;;;;;;5012487;28;20449;-81
2022/02/28 08:51:57;;;;;;;29.47;17.50;;;;;;;;;;5012816;28;20429;-82
2022/02/28 08:54:23;;;;;;;23.23;12.77;;;;;;;;;;5012836;28;20422;-85
2022/02/28 08:56:49;;;;;;;29.10;15.00;;;;;;;;;;5012581;28;20476;-85
2022/02/28 08:59:15;;;;;;;19.43;11.43;;;;;;;;;;5012712;28;20440;-82
2022/02/28 09:01:41;;;;;;;27.57;14.40;;;;;;;;;;5012519;28;20406;-82
2022/02/28 09:04:07;;;;;;;30.07;18.07;;;;;;;;;;4994932;28;20413;-82
2022/02/28 09:06:33;;;;;;;27.77;15.87;;;;;;;;;;5012732;28;20414;-80
2022/02/28 09:08:59;;;;;;;30.20;16.50;;;;;;;;;;5012755;28;20496;-84
2022/02/28 09:11:25;;;;;;;32.47;16.90;;;;;;;;;;4995054;28;20417;-85
2022/02/28 09:13:51;;;;;;;28.67;17.47;;;;;;;;;;5012651;28;20470;-85
2022/02/28 09:16:17;;;;;;;32.03;16.70;;;;;;;;;;5012628;28;20836;-81
2022/02/28 09:18:43;;;;;;;22.20;14.00;;;;;;;;;;5012421;28;20421;-85
2022/02/28 09:21:09;;;;;;;28.83;15.17;;;;;;;;;;5012519;28;20564;-84
2022/02/28 09:23:35;;;;;;;29.60;16.77;;;;;;;;;;5014306;28;20410;-84
2022/02/28 09:26:01;;;;;;;27.47;16.10;;;;;;;;;;5016265;28;20419;-86
2022/02/28 09:28:27;;;;;;;26.20;14.13;;;;;;;;;;4998574;28;20472;-84
2022/02/28 09:30:54;;;;;;;26.73;14.30;;;;;;;;;;5016233;28;20892;-85
2022/02/28 09:33:20;;;;;;;25.13;14.57;;;;;;;;;;5015809;28;20764;-86
2022/02/28 09:35:47;;;;;;;23.53;13.33;;;;;;;;;;4998420;28;20469;-85
2022/02/28 09:38:13;;;;;;;27.07;14.13;;;;;;;;;;5015976;28;20412;-85
2022/02/28 09:40:42;;;;;;;20.80;13.40;;;;;;;;;;5016044;28;20401;-83
2022/02/28 09:43:08;;;;;;;23.20;16.00;;;;;;;;;;5015907;28;20471;-82
2022/02/28 09:45:34;;;;;;;23.07;13.90;;;;;;;;;;5015989;28;20449;-85
2022/02/28 09:48:00;;;;;;;19.67;11.30;;;;;;;;;;5015480;28;20510;-84
2022/02/28 09:50:26;;;;;;;21.10;13.63;;;;;;;;;;5015786;28;20896;-82
2022/02/28 09:52:52;;;;;;;21.97;13.17;;;;;;;;;;5015878;28;20455;-84
2022/02/28 09:55:21;;;;;;;19.23;13.03;;;;;;;;;;5015644;28;20502;-86
2022/02/28 09:57:51;;;;;;;18.80;12.67;;;;;;;;;;5015670;28;20905;-87
2022/02/28 10:00:21;;;;;;;19.03;11.93;;;;;;;;;;5016068;28;20423;-87
2022/02/28 10:02:48;;;;;;;18.27;13.40;;;;;;;;;;5015862;28;20413;-86
2022/02/28 10:05:14;;;;;;;18.20;10.17;;;;;;;;;;5015421;28;20441;-86
2022/02/28 10:07:53;;;;;;;19.80;12.73;;;;;;;;;;5015501;28;20417;-88
2022/02/28 10:10:20;;;;;;;20.60;12.90;;;;;;;;;;4995888;28;20503;-91
2022/02/28 10:12:46;;;;;;;16.60;11.33;;;;;;;;;;5016798;28;20410;-91
2022/02/28 10:15:15;;;;;;;20.63;12.80;;;;;;;;;;4999353;28;20469;-90
2022/02/28 10:17:51;;;;;;;19.20;12.70;;;;;;;;;;5017477;28;20427;-91
2022/02/28 10:20:30;;;;;;;19.03;12.47;;;;;;;;;;4999679;28;20414;-89
2022/02/28 10:22:57;;;;;;;19.23;12.10;;;;;;;;;;5017328;28;20423;-84
2022/02/28 10:25:27;;;;;;;17.27;11.80;;;;;;;;;;4999676;28;20461;-89
2022/02/28 10:28:12;;;;;;;16.43;11.50;;;;;;;;;;5016360;28;20457;-93
2022/02/28 10:30:38;;;;;;;18.60;11.60;;;;;;;;;;5017051;28;20420;-94
2022/02/28 10:33:09;;;;;;;17.40;12.10;;;;;;;;;;5017616;28;20462;-91
2022/02/28 10:38:24;;;;;;;17.23;11.10;;;;;;;;;;5018730;28;20865;-91
2022/02/28 10:40:53;;;;;;;15.90;11.77;;;;;;;;;;4999961;28;20834;-91
2022/02/28 10:43:23;;;;;;;15.43;11.17;;;;;;;;;;5015969;28;20440;-88
2022/02/28 10:45:49;;;;;;;16.57;10.97;;;;;;;;;;5016030;28;20421;-92
2022/02/28 10:48:16;;;;;;;14.30;9.70;;;;;;;;;;5014900;28;20497;-91
2022/02/28 10:50:42;;;;;;;16.60;11.33;;;;;;;;;;4998105;28;20516;-89
2022/02/28 10:53:14;;;;;;;14.97;11.30;;;;;;;;;;5015897;28;20421;-85
2022/02/28 10:55:41;;;;;;;15.57;10.57;;;;;;;;;;4999107;28;20495;-86
2022/02/28 10:58:11;;;;;;;14.50;10.47;;;;;;;;;;5017856;28;20424;-87
2022/02/28 11:01:09;;;;;;;17.80;11.80;;;;;;;;;;5017394;28;20462;-90
2022/02/28 11:03:49;;;;;;;12.73;8.90;;;;;;;;;;4943969;28;20436;-80
2022/02/28 11:06:22;;;;;;;15.27;9.43;;;;;;;;;;5014341;28;20963;-81
2022/02/28 11:08:51;;;;;;;13.67;9.23;;;;;;;;;;5014119;28;20414;-81
2022/02/28 11:11:17;;;;;;;15.30;10.10;;;;;;;;;;5013695;28;20418;-81
2022/02/28 11:13:46;;;;;;;14.10;9.97;;;;;;;;;;5014109;28;20512;-80
2022/02/28 11:16:15;;;;;;;13.10;8.80;;;;;;;;;;5013991;28;20465;-81
2022/02/28 11:18:42;;;;;;;11.90;9.37;;;;;;;;;;5013587;28;20521;-81
2022/02/28 11:21:08;;;;;;;14.10;8.83;;;;;;;;;;5013678;28;20454;-81
2022/02/28 11:23:41;;;;;;;13.07;9.40;;;;;;;;;;5013955;28;20442;-81
2022/02/28 11:26:08;;;;;;;11.37;8.20;;;;;;;;;;5013911;28;20405;-80
2022/02/28 11:28:34;;;;;;;10.70;8.13;;;;;;;;;;5013939;28;20414;-81
2022/02/28 11:31:14;;;;;;;8.40;6.80;;;;;;;;;;5013870;28;20422;-81
2022/02/28 11:34:00;;;;;;;10.47;7.73;;;;;;;;;;5013360;28;20763;-80
2022/02/28 11:36:26;;;;;;;11.00;8.67;;;;;;;;;;5013733;28;20838;-82
2022/02/28 11:38:52;;;;;;;12.90;8.30;;;;;;;;;;5013766;28;20418;-81
2022/02/28 11:41:19;;;;;;;9.83;7.07;;;;;;;;;;5013708;28;20404;-81
2022/02/28 11:43:47;;;;;;;11.27;8.87;;;;;;;;;;5013753;28;20401;-81
2022/02/28 11:46:14;;;;;;;9.70;7.90;;;;;;;;;;5013332;28;20402;-81
2022/02/28 11:48:42;;;;;;;9.00;7.67;;;;;;;;;;5013241;28;20407;-81
2022/02/28 11:51:10;;;;;;;10.97;8.80;;;12.70;99.90;;;;;;5013530;28;20421;-82
2022/02/28 11:53:41;;;;;;;11.33;7.63;;;12.50;99.90;;;;;;4995398;28;20421;-81
2022/02/28 11:56:15;;;;;;;11.13;8.13;;;13.30;99.90;;;;;;5001837;28;20548;-83
2022/02/28 11:58:55;;;;;;;11.20;7.90;;;12.70;99.90;;;;;;4993816;28;20790;-83
2022/02/28 12:01:34;;;;;;;9.20;7.07;;;13.40;99.90;;;;;;4993476;28;20424;-82
2022/02/28 12:04:13;;;;;;;12.17;8.80;;;15.00;99.90;;;;;;4993538;28;20415;-82
2022/02/28 12:06:59;;;;;;;8.80;7.87;;;14.60;99.90;;;;;;4993912;28;20426;-82
2022/02/28 12:09:33;;;;;;;9.60;8.17;;;12.90;99.90;;;;;;4993702;28;20403;-82
2022/02/28 12:12:28;;;;;;;12.97;9.30;;;13.30;99.90;;;;;;4993580;28;20438;-82
2022/02/28 12:14:56;;;;;;;10.03;7.83;;;15.90;99.90;;;;;;4993520;28;20415;-87
2022/02/28 12:17:48;;;;;;;9.33;7.77;;;13.80;99.90;;;;;;4985574;28;20429;-90
2022/02/28 12:20:21;;;;;;;11.40;8.77;;;14.20;99.90;;;;;;4995580;28;20856;-91
2022/02/28 12:25:35;;;;;;;12.23;7.90;;;14.40;99.90;;;;;;5013832;28;20948;-89
2022/02/28 12:28:21;;;;;;;8.03;7.20;;;14.00;99.90;;;;;;5013611;28;20414;-87
2022/02/28 12:30:51;;;;;;;13.40;8.80;;;13.50;99.90;;;;;;5013746;28;20405;-89
2022/02/28 12:33:19;;;;;;;9.27;7.73;;;13.70;99.90;;;;;;5013558;28;20499;-91
2022/02/28 12:36:05;;;;;;;11.90;9.90;;;14.70;99.90;;;;;;5013652;28;20462;-92
2022/02/28 12:38:34;;;;;;;10.40;8.40;;;14.90;99.90;;;;;;5014155;28;20422;-92
2022/02/28 12:41:06;;;;;;;12.07;8.63;;;15.10;99.90;;;;;;5013530;28;20414;-86
2022/02/28 12:43:33;;;;;;;13.30;9.30;;;13.70;99.90;;;;;;5013522;28;20428;-91
2022/02/28 12:46:08;;;;;;;9.83;7.47;;;14.20;99.90;;;;;;5013514;28;20926;-88
2022/02/28 12:48:34;;;;;;;9.73;7.77;;;13.90;99.90;;;;;;5013310;28;20410;-92
2022/02/28 12:51:02;;;;;;;10.23;7.63;;;15.40;99.90;;;;;;5013706;28;20935;-84
2022/02/28 12:53:29;;;;;;;9.03;8.00;;;14.60;99.90;;;;;;5013862;28;20418;-91
2022/02/28 12:55:57;;;;;;;11.07;7.93;;;13.50;99.90;;;;;;5013697;28;20463;-92
2022/02/28 12:58:25;;;;;;;10.60;8.90;;;13.80;99.90;;;;;;5015420;28;20954;-93
2022/02/28 13:00:52;;;;;;;9.37;7.93;;;14.50;99.90;;;;;;5000365;28;20421;-92
2022/02/28 13:03:17;;;;;;;12.87;10.10;;;13.40;99.90;;;;;;4999918;28;20428;-86
2022/02/28 13:05:57;;;;;;;10.30;8.43;;;13.50;99.90;;;;;;5017266;28;20928;-90
2022/02/28 13:08:24;;;;;;;11.00;9.03;;;15.00;99.90;;;;;;5017608;28;20674;-93
2022/02/28 13:11:10;;;;;;;9.77;8.77;;;15.30;99.90;;;;;;5017307;28;20473;-91
2022/02/28 13:13:38;;;;;;;9.47;7.70;;;13.00;99.90;;;;;;5015909;28;20410;-82
2022/02/28 13:16:04;;;;;;;11.20;9.97;;;10.40;99.90;;;;;;5007747;28;21108;-82
2022/02/28 13:18:30;;;;;;;14.07;10.13;;;10.30;99.90;;;;;;5015775;28;20408;-82
2022/02/28 13:21:00;;;;;;;12.40;8.80;;;9.80;99.90;;;;;;5015415;28;20463;-82
2022/02/28 13:23:26;;;;;;;13.63;9.50;;;8.70;99.90;;;;;;4998459;28;20411;-82
2022/02/28 13:25:54;;;;;;;15.40;9.87;;;9.00;99.90;;;;;;5015878;28;20924;-82
2022/02/28 13:28:37;;;;;;;11.93;8.47;;;9.50;99.90;;;;;;5016099;28;20831;-82
2022/02/28 13:31:05;;;;;;;13.53;8.73;;;9.30;99.90;;;;;;5013005;28;20499;-83
2022/02/28 13:33:32;;;;;;;13.83;9.00;;;9.30;99.90;;;;;;4996110;28;20910;-82
2022/02/28 13:35:59;;;;;;;13.57;10.23;;;8.60;99.90;;;;;;5013203;28;20453;-82
2022/02/28 13:38:25;;;;;;;13.70;9.57;;;9.10;99.90;;;;;;5015931;28;20510;-82
2022/02/28 13:40:51;;;;;;;11.07;8.00;;;8.70;99.90;;;;;;5015505;28;20443;-83
2022/02/28 13:43:17;;;;;;;11.43;7.53;;;8.40;99.90;;;;;;5015695;28;20469;-81
2022/02/28 13:45:44;;;;;;;11.03;8.70;;;8.10;99.90;;;;;;5015818;28;20198;-82
2022/02/28 13:48:20;;;;;;;14.77;9.33;;;8.50;99.90;;;;;;5015419;28;20422;-81
2022/02/28 13:50:48;;;;;;;12.80;7.20;;;8.40;99.90;;;;;;5015802;28;20810;-80
2022/02/28 13:53:14;;;;;;;10.77;7.63;;;8.40;99.90;;;;;;5015088;28;20413;-81
2022/02/28 13:55:46;;;;;;;11.60;7.33;;;8.20;99.90;;;;;;4998014;28;20475;-79
2022/02/28 13:58:12;;;;;;;13.70;7.93;;;8.20;99.90;;;;;;5015577;28;20411;-79
2022/02/28 14:00:52;;;;;;;12.40;8.00;;;8.20;99.90;;;;;;4997864;28;20436;-82
2022/02/28 14:03:27;;;;;;;13.87;9.10;;;8.30;99.90;;;;;;5015282;28;20420;-82
2022/02/28 14:05:56;;;;;;;14.10;8.90;;;8.30;99.90;;;;;;5015519;28;20455;-82
2022/02/28 14:08:26;;;;;;;17.30;9.23;;;8.50;99.90;;;;;;5015384;28;20412;-82
2022/02/28 14:11:00;;;;;;;13.50;8.67;;;8.30;99.90;;;;;;5013878;28;20424;-82